sensor_id;sensor_type;location;lat;lon;timestamp;P1;P2;P0
53658;PMS5003;41524;35.624;139.698;2022-11-15T00:00:09;11.00;11.00;
53658;PMS5003;41524;35.624;139.698;2022-11-15T00:05:08;14.00;12.00;
53658;PMS5003;41524;35.624;139.698;2022-11-15T00:10:09;13.00;13.00;
53658;PMS5003;41524;35.624;139.698;2022-11-15T00:15:14;11.00;10.00;
53658;PMS5003;41524;35.624;139.698;2022-11-15T00:20:09;11.00;11.00;
53658;PMS5003;41524;35.624;139.698;2022-11-15T00:25:10;11.00;11.00;
53658;PMS5003;41524;35.624;139.698;2022-11-15T00:30:09;10.00;9.00;
53658;PMS5003;41524;35.624;139.698;2022-11-15T00:35:08;8.00;8.00;
53658;PMS5003;41524;35.624;139.698;2022-11-15T00:40:15;10.00;10.00;
53658;PMS5003;41524;35.624;139.698;2022-11-15T00:45:10;7.00;7.00;
53658;PMS5003;41524;35.624;139.698;2022-11-15T00:50:08;7.00;7.00;
53658;PMS5003;41524;35.624;139.698;2022-11-15T00:55:15;10.00;10.00;
53658;PMS5003;41524;35.624;139.698;2022-11-15T01:00:09;12.00;12.00;
53658;PMS5003;41524;35.624;139.698;2022-11-15T01:05:09;9.00;9.00;
53658;PMS5003;41524;35.624;139.698;2022-11-15T01:10:09;11.00;11.00;
53658;PMS5003;41524;35.624;139.698;2022-11-15T01:15:09;11.00;11.00;
53658;PMS5003;41524;35.624;139.698;2022-11-15T01:20:10;12.00;11.00;
53658;PMS5003;41524;35.624;139.698;2022-11-15T01:25:09;12.00;12.00;
53658;PMS5003;41524;35.624;139.698;2022-11-15T01:30:10;16.00;16.00;
53658;PMS5003;41524;35.624;139.698;2022-11-15T01:35:09;12.00;12.00;
53658;PMS5003;41524;35.624;139.698;2022-11-15T01:40:10;13.00;11.00;
53658;PMS5003;41524;35.624;139.698;2022-11-15T01:45:11;14.00;11.00;
53658;PMS5003;41524;35.624;139.698;2022-11-15T01:50:09;12.00;12.00;
53658;PMS5003;41524;35.624;139.698;2022-11-15T01:55:11;12.00;12.00;
53658;PMS5003;41524;35.624;139.698;2022-11-15T02:00:13;15.00;13.00;
53658;PMS5003;41524;35.624;139.698;2022-11-15T02:05:09;10.00;10.00;
53658;PMS5003;41524;35.624;139.698;2022-11-15T02:10:10;13.00;12.00;
53658;PMS5003;41524;35.624;139.698;2022-11-15T02:15:09;13.00;12.00;
53658;PMS5003;41524;35.624;139.698;2022-11-15T02:20:18;10.00;10.00;
53658;PMS5003;41524;35.624;139.698;2022-11-15T02:25:14;12.00;12.00;
53658;PMS5003;41524;35.624;139.698;2022-11-15T02:30:25;8.00;8.00;
53658;PMS5003;41524;35.624;139.698;2022-11-15T02:35:12;5.00;5.00;
53658;PMS5003;41524;35.624;139.698;2022-11-15T02:40:11;6.00;6.00;
53658;PMS5003;41524;35.624;139.698;2022-11-15T02:45:10;10.00;9.00;
53658;PMS5003;41524;35.624;139.698;2022-11-15T02:50:10;9.00;9.00;
53658;PMS5003;41524;35.624;139.698;2022-11-15T02:55:25;10.00;8.00;
53658;PMS5003;41524;35.624;139.698;2022-11-15T03:00:15;12.00;11.00;
53658;PMS5003;41524;35.624;139.698;2022-11-15T03:05:12;7.00;7.00;
53658;PMS5003;41524;35.624;139.698;2022-11-15T03:10:12;13.00;13.00;
53658;PMS5003;41524;35.624;139.698;2022-11-15T03:15:16;11.00;11.00;
53658;PMS5003;41524;35.624;139.698;2022-11-15T03:20:11;9.00;9.00;
53658;PMS5003;41524;35.624;139.698;2022-11-15T03:25:10;10.00;9.00;
53658;PMS5003;41524;35.624;139.698;2022-11-15T03:30:09;9.00;9.00;
53658;PMS5003;41524;35.624;139.698;2022-11-15T03:35:10;8.00;7.00;
53658;PMS5003;41524;35.624;139.698;2022-11-15T03:40:14;8.00;8.00;
53658;PMS5003;41524;35.624;139.698;2022-11-15T03:45:13;9.00;9.00;
53658;PMS5003;41524;35.624;139.698;2022-11-15T03:50:10;7.00;7.00;
53658;PMS5003;41524;35.624;139.698;2022-11-15T03:55:12;9.00;8.00;
53658;PMS5003;41524;35.624;139.698;2022-11-15T04:00:10;8.00;8.00;
53658;PMS5003;41524;35.624;139.698;2022-11-15T04:05:09;7.00;7.00;
53658;PMS5003;41524;35.624;139.698;2022-11-15T04:10:11;11.00;9.00;
53658;PMS5003;41524;35.624;139.698;2022-11-15T04:15:10;10.00;10.00;
53658;PMS5003;41524;35.624;139.698;2022-11-15T04:20:11;5.00;5.00;
53658;PMS5003;41524;35.624;139.698;2022-11-15T04:25:08;10.00;10.00;
53658;PMS5003;41524;35.624;139.698;2022-11-15T04:30:15;8.00;8.00;
53658;PMS5003;41524;35.624;139.698;2022-11-15T04:35:09;8.00;8.00;
53658;PMS5003;41524;35.624;139.698;2022-11-15T04:40:09;5.00;5.00;
53658;PMS5003;41524;35.624;139.698;2022-11-15T04:45:10;14.00;10.00;
53658;PMS5003;41524;35.624;139.698;2022-11-15T04:50:09;12.00;12.00;
53658;PMS5003;41524;35.624;139.698;2022-11-15T04:55:11;17.00;16.00;
53658;PMS5003;41524;35.624;139.698;2022-11-15T05:00:11;14.00;14.00;
53658;PMS5003;41524;35.624;139.698;2022-11-15T05:05:13;10.00;8.00;
53658;PMS5003;41524;35.624;139.698;2022-11-15T05:10:09;8.00;8.00;
53658;PMS5003;41524;35.624;139.698;2022-11-15T05:15:09;7.00;6.00;
53658;PMS5003;41524;35.624;139.698;2022-11-15T05:20:15;5.00;5.00;
53658;PMS5003;41524;35.624;139.698;2022-11-15T05:25:09;7.00;7.00;
53658;PMS5003;41524;35.624;139.698;2022-11-15T05:30:09;7.00;6.00;
53658;PMS5003;41524;35.624;139.698;2022-11-15T05:35:15;7.00;7.00;
53658;PMS5003;41524;35.624;139.698;2022-11-15T05:40:09;9.00;9.00;
53658;PMS5003;41524;35.624;139.698;2022-11-15T05:45:09;7.00;7.00;
53658;PMS5003;41524;35.624;139.698;2022-11-15T05:50:10;9.00;8.00;
53658;PMS5003;41524;35.624;139.698;2022-11-15T05:55:10;8.00;8.00;
53658;PMS5003;41524;35.624;139.698;2022-11-15T06:00:09;10.00;9.00;
53658;PMS5003;41524;35.624;139.698;2022-11-15T06:05:09;8.00;7.00;
53658;PMS5003;41524;35.624;139.698;2022-11-15T06:10:09;5.00;5.00;
53658;PMS5003;41524;35.624;139.698;2022-11-15T06:15:14;7.00;7.00;
53658;PMS5003;41524;35.624;139.698;2022-11-15T06:20:10;6.00;6.00;
53658;PMS5003;41524;35.624;139.698;2022-11-15T06:25:10;4.00;4.00;
53658;PMS5003;41524;35.624;139.698;2022-11-15T06:30:09;5.00;5.00;
53658;PMS5003;41524;35.624;139.698;2022-11-15T06:35:09;5.00;5.00;
53658;PMS5003;41524;35.624;139.698;2022-11-15T06:40:10;4.00;4.00;
53658;PMS5003;41524;35.624;139.698;2022-11-15T06:45:09;4.00;4.00;
53658;PMS5003;41524;35.624;139.698;2022-11-15T06:50:09;5.00;5.00;
53658;PMS5003;41524;35.624;139.698;2022-11-15T06:55:12;4.00;4.00;
53658;PMS5003;41524;35.624;139.698;2022-11-15T07:00:10;5.00;5.00;
53658;PMS5003;41524;35.624;139.698;2022-11-15T07:05:10;7.00;7.00;
53658;PMS5003;41524;35.624;139.698;2022-11-15T07:10:09;7.00;6.00;
53658;PMS5003;41524;35.624;139.698;2022-11-15T07:15:10;6.00;6.00;
53658;PMS5003;41524;35.624;139.698;2022-11-15T07:20:09;7.00;7.00;
53658;PMS5003;41524;35.624;139.698;2022-11-15T07:25:15;6.00;6.00;
53658;PMS5003;41524;35.624;139.698;2022-11-15T07:30:09;8.00;6.00;
53658;PMS5003;41524;35.624;139.698;2022-11-15T07:35:08;7.00;7.00;
53658;PMS5003;41524;35.624;139.698;2022-11-15T07:40:09;7.00;7.00;
53658;PMS5003;41524;35.624;139.698;2022-11-15T07:45:09;11.00;10.00;
53658;PMS5003;41524;35.624;139.698;2022-11-15T07:50:09;9.00;9.00;
53658;PMS5003;41524;35.624;139.698;2022-11-15T07:55:10;10.00;10.00;
53658;PMS5003;41524;35.624;139.698;2022-11-15T08:00:19;10.00;9.00;
53658;PMS5003;41524;35.624;139.698;2022-11-15T08:05:09;9.00;9.00;
53658;PMS5003;41524;35.624;139.698;2022-11-15T08:10:10;11.00;11.00;
53658;PMS5003;41524;35.624;139.698;2022-11-15T08:15:10;8.00;8.00;
53658;PMS5003;41524;35.624;139.698;2022-11-15T08:20:09;9.00;9.00;
53658;PMS5003;41524;35.624;139.698;2022-11-15T08:25:09;15.00;14.00;
53658;PMS5003;41524;35.624;139.698;2022-11-15T08:30:10;13.00;13.00;
53658;PMS5003;41524;35.624;139.698;2022-11-15T08:35:11;20.00;18.00;
53658;PMS5003;41524;35.624;139.698;2022-11-15T08:40:09;11.00;11.00;
53658;PMS5003;41524;35.624;139.698;2022-11-15T08:45:14;12.00;12.00;
53658;PMS5003;41524;35.624;139.698;2022-11-15T08:50:14;9.00;9.00;
53658;PMS5003;41524;35.624;139.698;2022-11-15T08:55:09;12.00;12.00;
53658;PMS5003;41524;35.624;139.698;2022-11-15T09:00:10;12.00;12.00;
53658;PMS5003;41524;35.624;139.698;2022-11-15T09:05:09;12.00;12.00;
53658;PMS5003;41524;35.624;139.698;2022-11-15T09:10:10;18.00;17.00;
53658;PMS5003;41524;35.624;139.698;2022-11-15T09:15:09;15.00;15.00;
53658;PMS5003;41524;35.624;139.698;2022-11-15T09:20:10;24.00;22.00;
53658;PMS5003;41524;35.624;139.698;2022-11-15T09:25:09;17.00;16.00;
53658;PMS5003;41524;35.624;139.698;2022-11-15T09:30:19;27.00;26.00;
53658;PMS5003;41524;35.624;139.698;2022-11-15T09:35:09;25.00;24.00;
53658;PMS5003;41524;35.624;139.698;2022-11-15T09:40:09;19.00;19.00;
53658;PMS5003;41524;35.624;139.698;2022-11-15T09:45:12;21.00;19.00;
53658;PMS5003;41524;35.624;139.698;2022-11-15T09:50:26;25.00;22.00;
53658;PMS5003;41524;35.624;139.698;2022-11-15T09:55:19;31.00;28.00;
53658;PMS5003;41524;35.624;139.698;2022-11-15T10:00:20;25.00;23.00;
53658;PMS5003;41524;35.624;139.698;2022-11-15T10:05:10;22.00;21.00;
53658;PMS5003;41524;35.624;139.698;2022-11-15T10:10:14;19.00;19.00;
53658;PMS5003;41524;35.624;139.698;2022-11-15T10:15:11;31.00;29.00;
53658;PMS5003;41524;35.624;139.698;2022-11-15T10:20:12;34.00;33.00;
53658;PMS5003;41524;35.624;139.698;2022-11-15T10:25:18;25.00;25.00;
53658;PMS5003;41524;35.624;139.698;2022-11-15T10:30:11;32.00;28.00;
53658;PMS5003;41524;35.624;139.698;2022-11-15T10:35:20;28.00;27.00;
53658;PMS5003;41524;35.624;139.698;2022-11-15T10:40:14;32.00;30.00;
53658;PMS5003;41524;35.624;139.698;2022-11-15T10:45:23;38.00;35.00;
53658;PMS5003;41524;35.624;139.698;2022-11-15T10:50:33;36.00;33.00;
53658;PMS5003;41524;35.624;139.698;2022-11-15T10:55:25;41.00;39.00;
53658;PMS5003;41524;35.624;139.698;2022-11-15T11:00:28;38.00;38.00;
53658;PMS5003;41524;35.624;139.698;2022-11-15T11:05:25;51.00;51.00;
53658;PMS5003;41524;35.624;139.698;2022-11-15T11:10:18;38.00;32.00;
53658;PMS5003;41524;35.624;139.698;2022-11-15T11:15:10;37.00;35.00;
53658;PMS5003;41524;35.624;139.698;2022-11-15T11:20:17;27.00;25.00;
53658;PMS5003;41524;35.624;139.698;2022-11-15T11:25:19;37.00;34.00;
53658;PMS5003;41524;35.624;139.698;2022-11-15T11:30:10;39.00;38.00;
53658;PMS5003;41524;35.624;139.698;2022-11-15T11:35:11;41.00;39.00;
53658;PMS5003;41524;35.624;139.698;2022-11-15T11:40:20;33.00;31.00;
53658;PMS5003;41524;35.624;139.698;2022-11-15T11:45:14;34.00;32.00;
53658;PMS5003;41524;35.624;139.698;2022-11-15T11:50:11;34.00;32.00;
53658;PMS5003;41524;35.624;139.698;2022-11-15T11:55:14;46.00;39.00;
53658;PMS5003;41524;35.624;139.698;2022-11-15T12:00:14;34.00;33.00;
53658;PMS5003;41524;35.624;139.698;2022-11-15T12:05:11;41.00;38.00;
53658;PMS5003;41524;35.624;139.698;2022-11-15T12:10:14;38.00;37.00;
53658;PMS5003;41524;35.624;139.698;2022-11-15T12:15:12;40.00;39.00;
53658;PMS5003;41524;35.624;139.698;2022-11-15T12:20:15;34.00;32.00;
53658;PMS5003;41524;35.624;139.698;2022-11-15T12:25:16;35.00;32.00;
53658;PMS5003;41524;35.624;139.698;2022-11-15T12:30:11;35.00;32.00;
53658;PMS5003;41524;35.624;139.698;2022-11-15T12:35:21;40.00;36.00;
53658;PMS5003;41524;35.624;139.698;2022-11-15T12:40:25;39.00;37.00;
53658;PMS5003;41524;35.624;139.698;2022-11-15T12:45:24;36.00;36.00;
53658;PMS5003;41524;35.624;139.698;2022-11-15T12:50:12;36.00;34.00;
53658;PMS5003;41524;35.624;139.698;2022-11-15T12:55:30;37.00;36.00;
53658;PMS5003;41524;35.624;139.698;2022-11-15T13:00:37;45.00;39.00;
53658;PMS5003;41524;35.624;139.698;2022-11-15T13:10:29;40.00;38.00;
53658;PMS5003;41524;35.624;139.698;2022-11-15T13:15:31;37.00;36.00;
53658;PMS5003;41524;35.624;139.698;2022-11-15T13:20:44;42.00;41.00;
53658;PMS5003;41524;35.624;139.698;2022-11-15T13:25:15;41.00;36.00;
53658;PMS5003;41524;35.624;139.698;2022-11-15T13:30:12;39.00;36.00;
53658;PMS5003;41524;35.624;139.698;2022-11-15T13:35:09;39.00;37.00;
53658;PMS5003;41524;35.624;139.698;2022-11-15T13:40:15;39.00;36.00;
53658;PMS5003;41524;35.624;139.698;2022-11-15T13:45:12;35.00;35.00;
53658;PMS5003;41524;35.624;139.698;2022-11-15T13:50:10;39.00;36.00;
53658;PMS5003;41524;35.624;139.698;2022-11-15T13:55:10;31.00;31.00;
53658;PMS5003;41524;35.624;139.698;2022-11-15T14:00:24;31.00;28.00;
53658;PMS5003;41524;35.624;139.698;2022-11-15T14:05:16;32.00;31.00;
53658;PMS5003;41524;35.624;139.698;2022-11-15T14:10:41;30.00;30.00;
53658;PMS5003;41524;35.624;139.698;2022-11-15T14:15:19;38.00;37.00;
53658;PMS5003;41524;35.624;139.698;2022-11-15T14:20:42;28.00;26.00;
53658;PMS5003;41524;35.624;139.698;2022-11-15T14:25:15;41.00;37.00;
53658;PMS5003;41524;35.624;139.698;2022-11-15T14:30:17;37.00;33.00;
53658;PMS5003;41524;35.624;139.698;2022-11-15T14:35:15;30.00;28.00;
53658;PMS5003;41524;35.624;139.698;2022-11-15T14:40:15;36.00;35.00;
53658;PMS5003;41524;35.624;139.698;2022-11-15T14:45:15;32.00;31.00;
53658;PMS5003;41524;35.624;139.698;2022-11-15T14:50:11;38.00;35.00;
53658;PMS5003;41524;35.624;139.698;2022-11-15T14:55:12;37.00;35.00;
53658;PMS5003;41524;35.624;139.698;2022-11-15T15:00:14;33.00;33.00;
53658;PMS5003;41524;35.624;139.698;2022-11-15T15:05:13;25.00;24.00;
53658;PMS5003;41524;35.624;139.698;2022-11-15T15:10:13;45.00;39.00;
53658;PMS5003;41524;35.624;139.698;2022-11-15T15:15:12;38.00;35.00;
53658;PMS5003;41524;35.624;139.698;2022-11-15T15:20:09;32.00;30.00;
53658;PMS5003;41524;35.624;139.698;2022-11-15T15:25:27;48.00;44.00;
53658;PMS5003;41524;35.624;139.698;2022-11-15T15:30:14;41.00;36.00;
53658;PMS5003;41524;35.624;139.698;2022-11-15T15:35:10;49.00;45.00;
53658;PMS5003;41524;35.624;139.698;2022-11-15T15:40:10;44.00;39.00;
53658;PMS5003;41524;35.624;139.698;2022-11-15T15:45:09;43.00;41.00;
53658;PMS5003;41524;35.624;139.698;2022-11-15T15:50:14;35.00;34.00;
53658;PMS5003;41524;35.624;139.698;2022-11-15T15:55:09;41.00;36.00;
53658;PMS5003;41524;35.624;139.698;2022-11-15T16:00:09;38.00;37.00;
53658;PMS5003;41524;35.624;139.698;2022-11-15T16:05:09;32.00;30.00;
53658;PMS5003;41524;35.624;139.698;2022-11-15T16:10:15;39.00;38.00;
53658;PMS5003;41524;35.624;139.698;2022-11-15T16:15:09;36.00;36.00;
53658;PMS5003;41524;35.624;139.698;2022-11-15T16:20:14;38.00;35.00;
53658;PMS5003;41524;35.624;139.698;2022-11-15T16:25:15;38.00;37.00;
53658;PMS5003;41524;35.624;139.698;2022-11-15T16:30:11;34.00;33.00;
53658;PMS5003;41524;35.624;139.698;2022-11-15T16:35:11;38.00;33.00;
53658;PMS5003;41524;35.624;139.698;2022-11-15T16:40:11;35.00;32.00;
53658;PMS5003;41524;35.624;139.698;2022-11-15T16:45:11;36.00;34.00;
53658;PMS5003;41524;35.624;139.698;2022-11-15T16:50:10;36.00;34.00;
53658;PMS5003;41524;35.624;139.698;2022-11-15T16:55:09;42.00;38.00;
53658;PMS5003;41524;35.624;139.698;2022-11-15T17:00:11;35.00;34.00;
53658;PMS5003;41524;35.624;139.698;2022-11-15T17:05:09;45.00;40.00;
53658;PMS5003;41524;35.624;139.698;2022-11-15T17:10:09;42.00;39.00;
53658;PMS5003;41524;35.624;139.698;2022-11-15T17:15:11;50.00;43.00;
53658;PMS5003;41524;35.624;139.698;2022-11-15T17:20:13;40.00;39.00;
53658;PMS5003;41524;35.624;139.698;2022-11-15T17:25:09;41.00;38.00;
53658;PMS5003;41524;35.624;139.698;2022-11-15T17:30:10;44.00;39.00;
53658;PMS5003;41524;35.624;139.698;2022-11-15T17:35:10;43.00;42.00;
53658;PMS5003;41524;35.624;139.698;2022-11-15T17:40:09;43.00;37.00;
53658;PMS5003;41524;35.624;139.698;2022-11-15T17:45:10;42.00;39.00;
53658;PMS5003;41524;35.624;139.698;2022-11-15T17:50:09;42.00;38.00;
53658;PMS5003;41524;35.624;139.698;2022-11-15T17:55:09;45.00;42.00;
53658;PMS5003;41524;35.624;139.698;2022-11-15T18:00:10;46.00;43.00;
53658;PMS5003;41524;35.624;139.698;2022-11-15T18:05:09;41.00;41.00;
53658;PMS5003;41524;35.624;139.698;2022-11-15T18:10:09;43.00;40.00;
53658;PMS5003;41524;35.624;139.698;2022-11-15T18:15:09;34.00;34.00;
53658;PMS5003;41524;35.624;139.698;2022-11-15T18:20:09;41.00;36.00;
53658;PMS5003;41524;35.624;139.698;2022-11-15T18:25:11;47.00;44.00;
53658;PMS5003;41524;35.624;139.698;2022-11-15T18:30:09;36.00;35.00;
53658;PMS5003;41524;35.624;139.698;2022-11-15T18:35:08;37.00;35.00;
53658;PMS5003;41524;35.624;139.698;2022-11-15T18:40:10;43.00;43.00;
53658;PMS5003;41524;35.624;139.698;2022-11-15T18:45:09;44.00;41.00;
53658;PMS5003;41524;35.624;139.698;2022-11-15T18:50:08;42.00;38.00;
53658;PMS5003;41524;35.624;139.698;2022-11-15T18:55:09;44.00;39.00;
53658;PMS5003;41524;35.624;139.698;2022-11-15T19:00:11;44.00;39.00;
53658;PMS5003;41524;35.624;139.698;2022-11-15T19:05:10;41.00;40.00;
53658;PMS5003;41524;35.624;139.698;2022-11-15T19:10:09;37.00;37.00;
53658;PMS5003;41524;35.624;139.698;2022-11-15T19:15:09;37.00;30.00;
53658;PMS5003;41524;35.624;139.698;2022-11-15T19:20:09;51.00;43.00;
53658;PMS5003;41524;35.624;139.698;2022-11-15T19:25:10;47.00;41.00;
53658;PMS5003;41524;35.624;139.698;2022-11-15T19:30:10;45.00;42.00;
53658;PMS5003;41524;35.624;139.698;2022-11-15T19:35:09;41.00;37.00;
53658;PMS5003;41524;35.624;139.698;2022-11-15T19:40:10;33.00;32.00;
53658;PMS5003;41524;35.624;139.698;2022-11-15T19:45:10;31.00;31.00;
53658;PMS5003;41524;35.624;139.698;2022-11-15T19:50:09;48.00;42.00;
53658;PMS5003;41524;35.624;139.698;2022-11-15T19:55:09;38.00;34.00;
53658;PMS5003;41524;35.624;139.698;2022-11-15T20:00:15;26.00;22.00;
53658;PMS5003;41524;35.624;139.698;2022-11-15T20:05:09;23.00;22.00;
53658;PMS5003;41524;35.624;139.698;2022-11-15T20:10:09;29.00;25.00;
53658;PMS5003;41524;35.624;139.698;2022-11-15T20:15:10;20.00;17.00;
53658;PMS5003;41524;35.624;139.698;2022-11-15T20:20:09;23.00;18.00;
53658;PMS5003;41524;35.624;139.698;2022-11-15T20:25:09;20.00;19.00;
53658;PMS5003;41524;35.624;139.698;2022-11-15T20:30:09;18.00;17.00;
53658;PMS5003;41524;35.624;139.698;2022-11-15T20:35:09;20.00;17.00;
53658;PMS5003;41524;35.624;139.698;2022-11-15T20:40:09;21.00;20.00;
53658;PMS5003;41524;35.624;139.698;2022-11-15T20:45:14;21.00;21.00;
53658;PMS5003;41524;35.624;139.698;2022-11-15T20:50:10;20.00;19.00;
53658;PMS5003;41524;35.624;139.698;2022-11-15T20:55:09;14.00;14.00;
53658;PMS5003;41524;35.624;139.698;2022-11-15T21:00:14;12.00;12.00;
53658;PMS5003;41524;35.624;139.698;2022-11-15T21:05:09;11.00;10.00;
53658;PMS5003;41524;35.624;139.698;2022-11-15T21:10:09;9.00;8.00;
53658;PMS5003;41524;35.624;139.698;2022-11-15T21:15:13;16.00;15.00;
53658;PMS5003;41524;35.624;139.698;2022-11-15T21:20:10;11.00;10.00;
53658;PMS5003;41524;35.624;139.698;2022-11-15T21:25:10;11.00;10.00;
53658;PMS5003;41524;35.624;139.698;2022-11-15T21:30:09;7.00;6.00;
53658;PMS5003;41524;35.624;139.698;2022-11-15T21:35:09;9.00;8.00;
53658;PMS5003;41524;35.624;139.698;2022-11-15T21:40:11;12.00;12.00;
53658;PMS5003;41524;35.624;139.698;2022-11-15T21:45:14;6.00;6.00;
53658;PMS5003;41524;35.624;139.698;2022-11-15T21:50:10;5.00;5.00;
53658;PMS5003;41524;35.624;139.698;2022-11-15T21:55:13;7.00;7.00;
53658;PMS5003;41524;35.624;139.698;2022-11-15T22:00:20;9.00;8.00;
53658;PMS5003;41524;35.624;139.698;2022-11-15T22:05:09;17.00;13.00;
53658;PMS5003;41524;35.624;139.698;2022-11-15T22:10:09;8.00;7.00;
53658;PMS5003;41524;35.624;139.698;2022-11-15T22:15:09;9.00;7.00;
53658;PMS5003;41524;35.624;139.698;2022-11-15T22:20:09;10.00;10.00;
53658;PMS5003;41524;35.624;139.698;2022-11-15T22:25:10;6.00;6.00;
53658;PMS5003;41524;35.624;139.698;2022-11-15T22:30:14;10.00;9.00;
53658;PMS5003;41524;35.624;139.698;2022-11-15T22:35:09;12.00;12.00;
53658;PMS5003;41524;35.624;139.698;2022-11-15T22:40:09;10.00;9.00;
53658;PMS5003;41524;35.624;139.698;2022-11-15T22:45:09;7.00;5.00;
53658;PMS5003;41524;35.624;139.698;2022-11-15T22:50:16;7.00;7.00;
53658;PMS5003;41524;35.624;139.698;2022-11-15T22:55:14;8.00;8.00;
53658;PMS5003;41524;35.624;139.698;2022-11-15T23:00:15;7.00;6.00;
53658;PMS5003;41524;35.624;139.698;2022-11-15T23:05:09;8.00;8.00;
53658;PMS5003;41524;35.624;139.698;2022-11-15T23:10:09;7.00;6.00;
53658;PMS5003;41524;35.624;139.698;2022-11-15T23:15:10;6.00;5.00;
53658;PMS5003;41524;35.624;139.698;2022-11-15T23:20:09;8.00;7.00;
53658;PMS5003;41524;35.624;139.698;2022-11-15T23:25:08;5.00;5.00;
53658;PMS5003;41524;35.624;139.698;2022-11-15T23:30:09;6.00;6.00;
53658;PMS5003;41524;35.624;139.698;2022-11-15T23:35:09;5.00;5.00;
53658;PMS5003;41524;35.624;139.698;2022-11-15T23:40:10;4.00;3.00;
53658;PMS5003;41524;35.624;139.698;2022-11-15T23:45:10;4.00;3.00;
53658;PMS5003;41524;35.624;139.698;2022-11-15T23:50:14;1.00;1.00;
53658;PMS5003;41524;35.624;139.698;2022-11-15T23:55:14;2.00;2.00;
